createdAt,value
2022-08-09T00:00:36.391Z,18.13
2022-08-09T00:01:37.362Z,18.07
2022-08-09T00:02:37.365Z,17.83
2022-08-09T00:04:10.183Z,17.84
2022-08-09T00:04:37.382Z,17.94
2022-08-09T00:06:16.019Z,18.04
2022-08-09T00:06:37.354Z,18.01
2022-08-09T00:07:44.477Z,18.05
2022-08-09T00:08:37.370Z,18.17
2022-08-09T00:09:37.052Z,18.04
2022-08-09T00:10:36.327Z,18.05
2022-08-09T00:12:03.854Z,18.05
2022-08-09T00:12:37.386Z,18.14
2022-08-09T00:13:38.540Z,18.20
2022-08-09T00:14:38.414Z,18.25
2022-08-09T00:15:59.362Z,18.34
2022-08-09T00:16:38.505Z,18.46
2022-08-09T00:18:05.056Z,18.53
2022-08-09T00:18:37.253Z,18.41
2022-08-09T00:19:36.261Z,18.39
2022-08-09T00:20:36.275Z,18.21
2022-08-09T00:21:36.329Z,18.26
2022-08-09T00:22:36.391Z,18.29
2022-08-09T00:23:57.235Z,18.25
2022-08-09T00:24:37.243Z,18.28
2022-08-09T00:25:36.284Z,18.13
2022-08-09T00:26:36.209Z,18.02
2022-08-09T00:27:36.376Z,17.89
2022-08-09T00:28:37.256Z,17.80
2022-08-09T00:30:10.090Z,17.70
2022-08-09T00:30:37.210Z,17.68
2022-08-09T00:31:58.748Z,17.66
2022-08-09T00:32:37.419Z,17.81
2022-08-09T00:33:50.466Z,17.92
2022-08-09T00:34:37.142Z,17.68
2022-08-09T00:35:43.466Z,17.57
2022-08-09T00:36:37.157Z,17.39
2022-08-09T00:37:36.169Z,17.21
2022-08-09T00:38:36.163Z,17.09
2022-08-09T00:40:14.007Z,17.10
2022-08-09T00:40:37.234Z,17.15
2022-08-09T00:44:10.306Z,17.12
2022-08-09T00:44:14.338Z,17.33
2022-08-09T00:44:14.429Z,17.06
2022-08-09T00:44:37.533Z,17.40
2022-08-09T00:45:36.085Z,17.27
2022-08-09T00:46:56.163Z,17.24
2022-08-09T00:47:39.833Z,17.21
2022-08-09T00:48:36.097Z,17.36
2022-08-09T00:49:36.980Z,17.36
2022-08-09T00:50:37.806Z,17.38
2022-08-09T00:51:54.094Z,17.35
2022-08-09T00:52:37.457Z,17.35
2022-08-09T00:53:36.212Z,17.30
2022-08-09T00:54:36.644Z,17.36
2022-08-09T00:56:05.304Z,17.45
2022-08-09T00:56:37.004Z,17.43
2022-08-09T00:57:36.075Z,17.35
2022-08-09T00:58:36.068Z,17.28
2022-08-09T00:59:41.050Z,17.15
2022-08-09T01:00:37.063Z,17.20
2022-08-09T01:01:44.610Z,17.07
2022-08-09T01:02:36.986Z,17.07
2022-08-09T01:03:40.617Z,17.02
2022-08-09T01:04:36.958Z,17.02
2022-08-09T01:05:51.952Z,17.12
2022-08-09T01:06:53.839Z,17.05
2022-08-09T01:07:37.869Z,16.96
2022-08-09T01:08:36.981Z,17.07
2022-08-09T01:09:36.921Z,16.90
2022-08-09T01:10:35.973Z,17.03
2022-08-09T01:11:36.081Z,17.10
2022-08-09T01:12:35.911Z,17.28
2022-08-09T01:13:53.336Z,17.18
2022-08-09T01:14:36.893Z,17.15
2022-08-09T01:15:40.798Z,17.03
2022-08-09T01:16:36.919Z,16.85
2022-08-09T01:17:35.875Z,16.90
2022-08-09T01:18:35.859Z,16.85
2022-08-09T01:19:43.053Z,16.95
2022-08-09T01:20:36.900Z,16.90
2022-08-09T01:21:44.550Z,16.87
2022-08-09T01:22:36.874Z,16.90
2022-08-09T01:24:02.325Z,17.05
2022-08-09T01:24:36.909Z,16.92
2022-08-09T01:25:41.820Z,16.98
2022-08-09T01:26:36.890Z,17.00
2022-08-09T01:27:35.853Z,17.06
2022-08-09T01:28:35.879Z,17.07
2022-08-09T01:29:55.156Z,17.10
2022-08-09T01:30:51.497Z,17.07
2022-08-09T01:32:30.873Z,17.07
2022-08-09T01:32:36.858Z,17.02
2022-08-09T01:33:35.821Z,17.09
2022-08-09T01:34:35.773Z,17.14
2022-08-09T01:35:38.300Z,17.09
2022-08-09T01:36:35.772Z,17.15
2022-08-09T01:38:05.760Z,17.09
2022-08-09T01:38:36.790Z,17.35
2022-08-09T01:39:35.998Z,17.06
2022-08-09T01:40:35.750Z,17.06
2022-08-09T01:41:35.726Z,17.12
2022-08-09T01:42:35.742Z,17.10
2022-08-09T01:43:51.161Z,17.15
2022-08-09T01:44:36.734Z,17.17
2022-08-09T01:45:35.689Z,17.12
2022-08-09T01:46:36.694Z,17.02
2022-08-09T01:47:44.525Z,17.05
2022-08-09T01:48:36.705Z,17.07
2022-08-09T01:49:39.047Z,17.20
2022-08-09T01:50:37.295Z,17.10
2022-08-09T01:51:36.659Z,17.18
2022-08-09T01:52:35.676Z,17.12
2022-08-09T01:53:41.332Z,17.12
2022-08-09T01:54:36.717Z,17.06
2022-08-09T01:55:35.656Z,17.00
2022-08-09T01:56:35.650Z,17.05
2022-08-09T01:57:40.245Z,16.95
2022-08-09T01:58:36.663Z,17.02
2022-08-09T01:59:50.795Z,17.02
2022-08-09T02:00:36.589Z,17.03
2022-08-09T02:02:00.135Z,16.99
2022-08-09T02:02:36.667Z,17.05
2022-08-09T02:03:35.881Z,17.14
2022-08-09T02:04:35.624Z,17.09
2022-08-09T02:05:37.852Z,17.03
2022-08-09T02:06:36.578Z,17.10
2022-08-09T02:08:39.948Z,17.25
2022-08-09T02:08:57.763Z,17.27
2022-08-09T02:09:42.580Z,17.35
2022-08-09T02:10:36.597Z,17.39
2022-08-09T02:11:42.042Z,17.33
2022-08-09T02:12:36.780Z,17.32
2022-08-09T02:13:40.333Z,17.05
2022-08-09T02:14:36.509Z,16.99
2022-08-09T02:15:48.951Z,17.14
2022-08-09T02:16:53.136Z,17.05
2022-08-09T02:18:00.944Z,17.00
2022-08-09T02:18:36.511Z,16.91
2022-08-09T02:19:39.122Z,17.00
2022-08-09T02:20:36.666Z,16.84
2022-08-09T02:21:35.525Z,16.98
2022-08-09T02:22:36.503Z,16.80
2022-08-09T02:23:42.687Z,16.91
2022-08-09T02:24:36.455Z,16.96
2022-08-09T02:25:42.459Z,16.95
2022-08-09T02:26:36.428Z,16.77
2022-08-09T02:27:57.990Z,16.81
2022-08-09T02:28:36.435Z,16.82
2022-08-09T02:29:35.395Z,16.88
2022-08-09T02:30:35.401Z,16.81
2022-08-09T02:31:36.392Z,16.77
2022-08-09T02:32:35.450Z,16.77
2022-08-09T02:33:38.427Z,16.67
2022-08-09T02:34:40.388Z,16.55
2022-08-09T02:36:03.031Z,16.52
2022-08-09T02:36:36.370Z,16.51
2022-08-09T02:37:36.679Z,16.54
2022-08-09T02:38:35.491Z,16.47
2022-08-09T02:39:41.857Z,16.65
2022-08-09T02:40:36.391Z,16.65
2022-08-09T02:41:35.367Z,16.72
2022-08-09T02:42:35.329Z,16.72
2022-08-09T02:43:54.137Z,16.75
2022-08-09T02:44:36.380Z,16.98
2022-08-09T02:45:35.333Z,17.06
2022-08-09T02:46:35.330Z,17.00
2022-08-09T02:47:58.102Z,16.78
2022-08-09T02:48:36.319Z,16.91
2022-08-09T02:49:38.980Z,16.81
2022-08-09T02:50:36.362Z,16.69
2022-08-09T02:51:37.174Z,16.66
2022-08-09T02:52:36.252Z,16.59
2022-08-09T02:53:35.270Z,16.59
2022-08-09T02:54:35.287Z,16.54
2022-08-09T02:55:46.193Z,16.54
2022-08-09T02:56:36.544Z,16.44
2022-08-09T02:57:40.491Z,16.52
2022-08-09T02:58:38.011Z,16.37
2022-08-09T02:59:36.331Z,16.57
2022-08-09T03:00:35.295Z,16.32
2022-08-09T03:01:43.237Z,16.26
2022-08-09T03:02:36.561Z,16.33
2022-08-09T03:04:12.227Z,16.42
2022-08-09T03:04:36.220Z,16.44
2022-08-09T03:05:35.236Z,16.22
2022-08-09T03:06:36.227Z,16.23
2022-08-09T03:07:35.181Z,16.06
2022-08-09T03:08:35.156Z,16.06
2022-08-09T03:09:35.181Z,15.96
2022-08-09T03:10:36.252Z,15.77
2022-08-09T03:12:11.045Z,15.88
2022-08-09T03:12:36.133Z,15.95
2022-08-09T03:13:43.738Z,15.98
2022-08-09T03:14:36.695Z,16.06
2022-08-09T03:16:04.547Z,15.98
2022-08-09T03:16:41.650Z,16.08
2022-08-09T03:17:36.160Z,16.07
2022-08-09T03:18:35.101Z,16.07
2022-08-09T03:19:52.531Z,16.10
2022-08-09T03:20:36.125Z,16.10
2022-08-09T03:21:39.473Z,16.13
2022-08-09T03:22:42.029Z,16.26
2022-08-09T03:23:36.103Z,16.18
2022-08-09T03:24:51.827Z,16.25
2022-08-09T03:25:58.693Z,16.42
2022-08-09T03:26:36.043Z,16.54
2022-08-09T03:27:37.439Z,16.48
2022-08-09T03:28:36.055Z,16.44
2022-08-09T03:29:35.579Z,16.13
2022-08-09T03:30:36.875Z,16.25
2022-08-09T03:31:42.751Z,16.32
2022-08-09T03:32:37.187Z,16.30
2022-08-09T03:33:52.994Z,16.33
2022-08-09T03:34:36.027Z,16.37
2022-08-09T03:36:11.453Z,16.14
2022-08-09T03:36:35.975Z,16.13
2022-08-09T03:37:56.265Z,16.16
2022-08-09T03:38:35.983Z,16.16
2022-08-09T03:39:37.984Z,16.16
2022-08-09T03:40:34.953Z,16.11
2022-08-09T03:41:45.772Z,16.07
2022-08-09T03:42:36.015Z,16.01
2022-08-09T03:43:36.573Z,15.96
2022-08-09T03:44:34.996Z,16.10
2022-08-09T03:46:03.949Z,15.96
2022-08-09T03:46:35.891Z,15.93
2022-08-09T03:47:36.677Z,15.77
2022-08-09T03:48:36.148Z,15.62
2022-08-09T03:49:35.901Z,15.56
2022-08-09T03:50:34.862Z,15.52
2022-08-09T03:51:43.993Z,15.62
2022-08-09T03:52:35.853Z,15.53
2022-08-09T03:53:37.663Z,15.64
2022-08-09T03:54:34.928Z,15.74
2022-08-09T03:55:36.243Z,15.81
2022-08-09T03:56:35.868Z,15.84
2022-08-09T03:57:34.806Z,15.80
2022-08-09T03:58:36.802Z,15.93
2022-08-09T03:59:53.458Z,15.98
2022-08-09T04:00:35.913Z,15.80
2022-08-09T04:01:34.779Z,15.81
2022-08-09T04:02:34.934Z,15.89
2022-08-09T04:03:46.087Z,15.86
2022-08-09T04:04:38.659Z,15.80
2022-08-09T04:05:40.494Z,15.66
2022-08-09T04:06:35.772Z,15.70
2022-08-09T04:07:52.662Z,15.88
2022-08-09T04:08:35.760Z,15.81
2022-08-09T04:09:41.742Z,15.86
2022-08-09T04:10:35.730Z,15.64
2022-08-09T04:11:34.833Z,15.66
2022-08-09T04:12:34.717Z,15.73
2022-08-09T04:13:45.139Z,15.66
2022-08-09T04:14:54.019Z,15.70
2022-08-09T04:15:52.085Z,15.67
2022-08-09T04:16:35.685Z,15.48
2022-08-09T04:17:34.668Z,15.53
2022-08-09T04:18:34.692Z,15.52
2022-08-09T04:19:43.236Z,15.44
2022-08-09T04:20:35.657Z,15.33
2022-08-09T04:21:36.328Z,15.27
2022-08-09T04:22:35.639Z,15.46
2022-08-09T04:23:35.690Z,15.40
2022-08-09T04:24:34.630Z,15.43
2022-08-09T04:25:34.677Z,15.44
2022-08-09T04:26:37.912Z,15.41
2022-08-09T04:27:37.863Z,15.52
2022-08-09T04:28:36.469Z,15.60
2022-08-09T04:29:35.642Z,15.73
2022-08-09T04:30:34.624Z,15.88
2022-08-09T04:31:37.726Z,16.14
2022-08-09T04:32:37.364Z,16.55
2022-08-09T04:33:47.311Z,16.65
2022-08-09T04:34:35.587Z,16.73
2022-08-09T04:35:34.540Z,16.63
2022-08-09T04:36:35.539Z,16.95
2022-08-09T04:37:46.074Z,17.15
2022-08-09T04:38:35.554Z,17.79
2022-08-09T04:39:40.620Z,18.09
2022-08-09T04:40:36.624Z,18.59
2022-08-09T04:41:43.790Z,18.87
2022-08-09T04:42:35.783Z,19.15
2022-08-09T04:43:35.755Z,19.42
2022-08-09T04:44:34.533Z,19.70
2022-08-09T04:45:36.195Z,20.07
2022-08-09T04:46:56.911Z,20.40
2022-08-09T04:47:45.117Z,20.78
2022-08-09T04:48:35.511Z,20.87
2022-08-09T04:49:52.573Z,20.82
2022-08-09T04:50:38.051Z,20.82
2022-08-09T04:51:34.499Z,21.18
2022-08-09T04:52:34.745Z,21.38
2022-08-09T04:53:34.451Z,21.85
2022-08-09T04:54:34.544Z,22.01
2022-08-09T04:55:38.971Z,22.19
2022-08-09T04:56:35.452Z,22.44
2022-08-09T04:57:59.342Z,22.52
2022-08-09T04:58:35.384Z,22.54
2022-08-09T04:59:34.414Z,22.79
2022-08-09T05:00:34.498Z,22.82
2022-08-09T05:01:34.391Z,22.91
2022-08-09T05:02:34.754Z,22.72
2022-08-09T05:03:43.127Z,22.56
2022-08-09T05:04:35.383Z,22.72
2022-08-09T05:05:51.978Z,22.46
2022-08-09T05:06:36.045Z,22.29
2022-08-09T05:07:35.395Z,22.33
2022-08-09T05:08:34.401Z,22.20
2022-08-09T05:09:48.803Z,21.96
2022-08-09T05:10:36.821Z,21.59
2022-08-09T05:11:35.592Z,21.53
2022-08-09T05:12:34.455Z,21.12
2022-08-09T05:13:34.374Z,21.22
2022-08-09T05:14:34.324Z,21.13
2022-08-09T05:15:42.704Z,21.26
2022-08-09T05:16:43.812Z,21.31
2022-08-09T05:18:38.565Z,21.42
2022-08-09T05:18:50.852Z,21.33
2022-08-09T05:19:44.870Z,21.61
2022-08-09T05:20:35.272Z,21.81
2022-08-09T05:21:46.729Z,22.04
2022-08-09T05:23:54.845Z,22.15
2022-08-09T05:23:57.698Z,22.27
2022-08-09T05:24:35.236Z,21.85
2022-08-09T05:25:34.234Z,21.42
2022-08-09T05:26:37.126Z,21.56
2022-08-09T05:27:35.312Z,21.48
2022-08-09T05:28:35.249Z,21.28
2022-08-09T05:29:35.421Z,20.87
2022-08-09T05:30:34.195Z,20.87
2022-08-09T05:31:37.049Z,21.18
2022-08-09T05:32:35.164Z,21.45
2022-08-09T05:33:34.179Z,21.83
2022-08-09T05:34:35.252Z,21.90
2022-08-09T05:35:45.872Z,22.01
2022-08-09T05:36:35.180Z,21.74
2022-08-09T05:37:47.489Z,21.64
2022-08-09T05:38:35.141Z,21.79
2022-08-09T05:39:36.108Z,21.74
2022-08-09T05:40:35.159Z,21.77
2022-08-09T05:41:34.107Z,21.45
2022-08-09T05:42:34.428Z,21.48
2022-08-09T05:43:35.123Z,21.66
2022-08-09T05:44:35.057Z,21.45
2022-08-09T05:45:52.711Z,20.57
2022-08-09T05:46:35.054Z,20.13
2022-08-09T05:47:34.063Z,19.55
2022-08-09T05:48:35.062Z,19.72
2022-08-09T05:50:28.171Z,20.15
2022-08-09T05:50:50.775Z,20.44
2022-08-09T05:51:45.826Z,20.57
2022-08-09T05:52:35.401Z,20.30
2022-08-09T05:53:35.357Z,19.95
2022-08-09T05:54:34.050Z,19.67
2022-08-09T05:55:34.089Z,19.79
2022-08-09T05:56:34.116Z,19.97
2022-08-09T05:57:55.153Z,20.10
2022-08-09T05:58:34.979Z,20.41
2022-08-09T05:59:34.062Z,20.61
2022-08-09T06:00:34.010Z,20.73
2022-08-09T06:01:42.682Z,20.82
2022-08-09T06:02:35.447Z,20.88
2022-08-09T06:03:34.861Z,20.69
2022-08-09T06:04:35.280Z,20.37
2022-08-09T06:05:57.451Z,20.19
2022-08-09T06:06:34.924Z,20.12
2022-08-09T06:07:33.963Z,20.12
2022-08-09T06:08:34.035Z,20.35
2022-08-09T06:10:01.482Z,20.66
2022-08-09T06:10:35.031Z,20.85
2022-08-09T06:11:41.247Z,20.94
2022-08-09T06:12:35.064Z,20.63
2022-08-09T06:13:34.350Z,20.54
2022-08-09T06:14:33.882Z,20.63
2022-08-09T06:15:33.859Z,20.83
2022-08-09T06:16:33.870Z,20.90
2022-08-09T06:17:39.079Z,20.78
2022-08-09T06:18:34.871Z,20.79
2022-08-09T06:19:33.890Z,20.98
2022-08-09T06:20:33.955Z,20.97
2022-08-09T06:21:33.850Z,21.09
2022-08-09T06:22:33.953Z,21.15
2022-08-09T06:23:55.126Z,21.18
2022-08-09T06:24:34.833Z,21.38
2022-08-09T06:25:34.513Z,21.24
2022-08-09T06:26:33.812Z,21.30
2022-08-09T06:27:43.084Z,21.55
2022-08-09T06:28:34.826Z,21.59
2022-08-09T06:29:34.200Z,21.81
2022-08-09T06:30:34.821Z,21.74
2022-08-09T06:31:39.954Z,21.82
2022-08-09T06:33:00.929Z,21.73
2022-08-09T06:33:40.565Z,21.53
2022-08-09T06:34:34.794Z,21.58
2022-08-09T06:35:35.821Z,21.59
2022-08-09T06:36:34.781Z,21.13
2022-08-09T06:37:49.860Z,20.78
2022-08-09T06:38:37.729Z,20.75
2022-08-09T06:39:48.524Z,20.76
2022-08-09T06:40:34.774Z,20.83
2022-08-09T06:41:39.718Z,20.85
2022-08-09T06:42:34.821Z,20.91
2022-08-09T06:43:34.730Z,21.18
2022-08-09T06:44:34.694Z,20.90
2022-08-09T06:46:06.594Z,20.98
2022-08-09T06:46:40.069Z,20.61
2022-08-09T06:47:39.797Z,20.76
2022-08-09T06:48:34.667Z,20.90
2022-08-09T06:50:11.613Z,20.96
2022-08-09T06:50:34.677Z,20.96
2022-08-09T06:51:33.631Z,20.63
2022-08-09T06:52:34.758Z,20.83
2022-08-09T06:53:38.476Z,20.97
2022-08-09T06:54:34.825Z,20.94
2022-08-09T06:55:33.650Z,20.96
2022-08-09T06:56:33.637Z,20.98
2022-08-09T06:58:01.059Z,20.79
2022-08-09T07:00:47.023Z,20.63
2022-08-09T07:00:48.792Z,21.01
2022-08-09T07:00:49.650Z,20.63
2022-08-09T07:01:53.509Z,20.90
2022-08-09T07:02:34.913Z,20.79
2022-08-09T07:03:33.698Z,20.85
2022-08-09T07:04:34.541Z,21.03
2022-08-09T07:05:58.304Z,21.24
2022-08-09T07:06:34.619Z,21.03
2022-08-09T07:07:59.879Z,20.91
2022-08-09T07:08:34.503Z,20.93
2022-08-09T07:09:55.438Z,21.21
2022-08-09T07:10:34.517Z,21.26
2022-08-09T07:11:34.203Z,21.40
2022-08-09T07:12:38.041Z,21.28
2022-08-09T07:13:45.112Z,21.64
2022-08-09T07:14:34.542Z,22.02
2022-08-09T07:16:34.874Z,22.17
2022-08-09T07:16:42.477Z,22.29
2022-08-09T07:17:39.809Z,22.06
2022-08-09T07:18:34.449Z,21.89
2022-08-09T07:19:33.478Z,21.64
2022-08-09T07:20:33.464Z,21.83
2022-08-09T07:21:34.416Z,21.96
2022-08-09T07:22:34.444Z,21.63
2022-08-09T07:23:36.187Z,21.40
2022-08-09T07:24:40.069Z,21.67
2022-08-09T07:25:39.022Z,21.64
2022-08-09T07:26:34.365Z,21.38
2022-08-09T07:27:42.632Z,21.48
2022-08-09T07:28:34.815Z,21.51
2022-08-09T07:29:42.942Z,21.55
2022-08-09T07:30:34.473Z,21.59
2022-08-09T07:31:38.412Z,21.59
2022-08-09T07:32:34.963Z,21.85
2022-08-09T07:33:53.128Z,22.06
2022-08-09T07:34:34.330Z,22.26
2022-08-09T07:35:53.218Z,21.82
2022-08-09T07:36:34.318Z,21.98
2022-08-09T07:37:42.819Z,21.74
2022-08-09T07:38:34.340Z,21.42
2022-08-09T07:39:41.360Z,21.70
2022-08-09T07:40:54.178Z,21.82
2022-08-09T07:41:38.662Z,22.17
2022-08-09T07:42:33.274Z,22.45
2022-08-09T07:43:33.288Z,22.72
2022-08-09T07:44:52.936Z,23.00
2022-08-09T07:45:37.764Z,23.32
2022-08-09T07:46:34.292Z,23.26
2022-08-09T07:47:49.371Z,22.67
2022-08-09T07:48:34.238Z,22.36
2022-08-09T07:49:34.273Z,21.96
2022-08-09T07:50:36.377Z,21.79
2022-08-09T07:52:04.421Z,21.89
2022-08-09T07:52:35.606Z,22.14
2022-08-09T07:53:36.419Z,22.36
2022-08-09T07:54:34.253Z,22.59
2022-08-09T07:55:41.505Z,22.09
2022-08-09T07:56:34.365Z,22.02
2022-08-09T07:57:35.691Z,22.33
2022-08-09T07:58:33.168Z,22.67
2022-08-09T07:59:45.807Z,22.66
2022-08-09T08:00:36.183Z,22.57
2022-08-09T08:01:34.324Z,22.30
2022-08-09T08:02:33.512Z,22.06
2022-08-09T08:03:33.251Z,22.26
2022-08-09T08:04:33.367Z,22.45
2022-08-09T08:05:54.177Z,22.11
2022-08-09T08:06:35.153Z,22.08
2022-08-09T08:09:00.668Z,22.30
2022-08-09T08:09:01.960Z,22.89
2022-08-09T08:09:38.483Z,23.14
2022-08-09T08:10:34.533Z,22.94
2022-08-09T08:12:11.015Z,22.52
2022-08-09T08:12:34.116Z,22.74
2022-08-09T08:13:42.620Z,22.88
2022-08-09T08:14:34.077Z,23.37
2022-08-09T08:15:35.536Z,23.79
2022-08-09T08:16:33.089Z,24.08
2022-08-09T08:17:52.080Z,23.90
2022-08-09T08:18:34.057Z,23.68
2022-08-09T08:19:34.035Z,23.64
2022-08-09T08:20:33.611Z,23.34
2022-08-09T08:21:33.007Z,23.14
2022-08-09T08:22:33.274Z,23.09
2022-08-09T08:23:34.861Z,23.26
2022-08-09T08:24:35.134Z,23.31
2022-08-09T08:25:44.781Z,22.99
2022-08-09T08:26:41.864Z,23.14
2022-08-09T08:27:40.568Z,23.45
2022-08-09T08:28:35.091Z,23.79
2022-08-09T08:29:39.424Z,23.87
2022-08-09T08:30:34.154Z,23.82
2022-08-09T08:32:02.434Z,23.49
2022-08-09T08:32:33.951Z,23.14
2022-08-09T08:33:40.631Z,23.04
2022-08-09T08:34:34.519Z,23.21
2022-08-09T08:35:37.080Z,23.77
2022-08-09T08:36:33.924Z,23.72
2022-08-09T08:37:41.396Z,23.68
2022-08-09T08:38:33.874Z,23.78
2022-08-09T08:39:39.232Z,24.19
2022-08-09T08:40:33.949Z,24.39
2022-08-09T08:41:50.944Z,24.67
2022-08-09T08:42:33.972Z,24.42
2022-08-09T08:43:32.868Z,24.26
2022-08-09T08:44:35.134Z,23.60
2022-08-09T08:45:37.570Z,23.21
2022-08-09T08:46:41.297Z,23.31
2022-08-09T08:47:34.837Z,23.93
2022-08-09T08:48:34.064Z,24.26
2022-08-09T08:49:47.210Z,24.49
2022-08-09T08:50:40.092Z,24.52
2022-08-09T08:51:40.268Z,24.67
2022-08-09T08:52:57.907Z,24.68
2022-08-09T08:53:37.196Z,24.66
2022-08-09T08:54:32.804Z,24.98
2022-08-09T08:55:32.778Z,24.56
2022-08-09T08:56:32.821Z,24.45
2022-08-09T08:57:35.073Z,24.02
2022-08-09T08:58:32.947Z,23.74
2022-08-09T08:59:44.761Z,23.77
2022-08-09T09:00:34.471Z,23.92
2022-08-09T09:01:44.687Z,23.90
2022-08-09T09:02:34.272Z,24.29
2022-08-09T09:03:37.224Z,24.36
2022-08-09T09:04:45.758Z,24.70
2022-08-09T09:05:59.574Z,24.74
2022-08-09T09:06:33.752Z,25.01
2022-08-09T09:07:32.723Z,25.23
2022-08-09T09:08:40.710Z,25.59
2022-08-09T09:09:58.522Z,25.42
2022-08-09T09:10:33.676Z,24.77
2022-08-09T09:11:33.906Z,25.01
2022-08-09T09:12:34.301Z,25.16
2022-08-09T09:13:41.745Z,25.14
2022-08-09T09:14:33.675Z,25.07
2022-08-09T09:15:32.637Z,25.02
2022-08-09T09:16:34.424Z,25.27
2022-08-09T09:17:48.995Z,25.51
2022-08-09T09:18:33.735Z,25.54
2022-08-09T09:19:42.594Z,25.54
2022-08-09T09:20:34.600Z,25.49
2022-08-09T09:21:32.639Z,25.23
2022-08-09T09:22:33.609Z,25.14
2022-08-09T09:23:37.799Z,25.45
2022-08-09T09:24:33.631Z,25.41
2022-08-09T09:26:00.905Z,24.94
2022-08-09T09:26:33.642Z,25.04
2022-08-09T09:28:04.576Z,25.69
2022-08-09T09:29:02.066Z,25.98
2022-08-09T09:29:58.198Z,26.42
2022-08-09T09:30:41.963Z,26.24
2022-08-09T09:32:01.839Z,26.51
2022-08-09T09:32:35.433Z,26.03
2022-08-09T09:33:44.704Z,25.75
2022-08-09T09:34:33.523Z,25.53
2022-08-09T09:35:33.224Z,25.16
2022-08-09T09:36:32.538Z,25.16
2022-08-09T09:37:32.531Z,25.08
2022-08-09T09:38:36.703Z,25.54
2022-08-09T09:39:50.440Z,25.23
2022-08-09T09:40:33.602Z,25.41
2022-08-09T09:41:32.673Z,25.23
2022-08-09T09:42:32.607Z,25.35
2022-08-09T09:43:41.491Z,25.51
2022-08-09T09:44:33.957Z,25.71
2022-08-09T09:45:32.518Z,25.63
2022-08-09T09:46:42.120Z,25.79
2022-08-09T09:47:37.953Z,25.82
2022-08-09T09:48:34.504Z,26.28
2022-08-09T09:50:07.207Z,26.57
2022-08-09T09:50:33.429Z,26.75
2022-08-09T09:51:38.487Z,26.13
2022-08-09T09:52:37.481Z,26.35
2022-08-09T09:53:57.822Z,26.44
2022-08-09T09:54:33.390Z,26.21
2022-08-09T09:55:33.466Z,26.28
2022-08-09T09:56:33.668Z,26.09
2022-08-09T09:58:04.138Z,25.75
2022-08-09T09:58:33.359Z,25.91
2022-08-09T09:59:35.485Z,25.90
2022-08-09T10:00:32.336Z,26.56
2022-08-09T10:01:38.282Z,27.01
2022-08-09T10:02:33.582Z,27.21
2022-08-09T10:03:32.348Z,27.52
2022-08-09T10:04:32.331Z,27.59
2022-08-09T10:06:03.849Z,27.52
2022-08-09T10:06:33.403Z,27.15
2022-08-09T10:07:32.473Z,26.57
2022-08-09T10:08:32.424Z,26.21
2022-08-09T10:09:33.305Z,26.06
2022-08-09T10:10:32.296Z,26.50
2022-08-09T10:11:58.899Z,25.83
2022-08-09T10:12:34.270Z,25.69
2022-08-09T10:13:43.307Z,25.78
2022-08-09T10:14:34.034Z,26.12
2022-08-09T10:16:09.647Z,26.66
2022-08-09T10:16:58.201Z,26.93
2022-08-09T10:17:50.523Z,26.93
2022-08-09T10:18:33.215Z,26.71
2022-08-09T10:19:32.317Z,26.84
2022-08-09T10:20:36.055Z,27.16
2022-08-09T10:21:33.235Z,27.21
2022-08-09T10:22:33.392Z,26.96
2022-08-09T10:23:33.184Z,26.57
2022-08-09T10:24:35.599Z,26.36
2022-08-09T10:25:34.690Z,26.54
2022-08-09T10:26:33.179Z,26.73
2022-08-09T10:27:38.612Z,26.57
2022-08-09T10:28:33.165Z,26.61
2022-08-09T10:30:50.634Z,26.96
2022-08-09T10:32:20.904Z,27.24
2022-08-09T10:32:35.659Z,27.40
2022-08-09T10:32:42.460Z,27.20
2022-08-09T10:34:10.409Z,26.44
2022-08-09T10:34:36.074Z,26.51
2022-08-09T10:35:32.221Z,26.83
2022-08-09T10:36:32.207Z,27.15
2022-08-09T10:37:38.225Z,27.18
2022-08-09T10:38:33.884Z,27.46
2022-08-09T10:39:40.746Z,27.81
2022-08-09T10:40:39.020Z,28.23
2022-08-09T10:41:33.105Z,28.20
2022-08-09T10:42:32.299Z,28.27
2022-08-09T10:43:36.098Z,28.36
2022-08-09T10:44:33.088Z,28.57
2022-08-09T10:45:32.121Z,28.45
2022-08-09T10:46:32.064Z,28.52
2022-08-09T10:48:16.385Z,27.80
2022-08-09T10:48:33.119Z,27.40
2022-08-09T10:49:50.880Z,27.52
2022-08-09T10:50:33.241Z,27.49
2022-08-09T10:51:40.909Z,27.59
2022-08-09T10:52:33.185Z,27.81
2022-08-09T10:53:37.888Z,27.58
2022-08-09T10:54:34.110Z,27.18
2022-08-09T10:55:35.716Z,27.39
2022-08-09T10:56:32.987Z,27.80
2022-08-09T10:57:32.280Z,28.18
2022-08-09T10:58:32.389Z,28.57
2022-08-09T10:59:55.334Z,28.42
2022-08-09T11:00:32.983Z,28.58
2022-08-09T11:03:13.615Z,29.03
2022-08-09T11:03:18.063Z,28.77
2022-08-09T11:03:50.239Z,29.20
2022-08-09T11:04:33.059Z,29.14
2022-08-09T11:05:32.985Z,29.18
2022-08-09T11:06:31.968Z,29.14
2022-08-09T11:07:57.647Z,28.72
2022-08-09T11:08:33.374Z,28.43
2022-08-09T11:09:34.979Z,28.03
2022-08-09T11:10:33.889Z,27.99
2022-08-09T11:11:32.048Z,28.36
2022-08-09T11:12:32.199Z,28.03
2022-08-09T11:13:50.607Z,27.91
2022-08-09T11:14:32.914Z,27.88
2022-08-09T11:15:33.714Z,28.27
2022-08-09T11:16:35.117Z,28.30
2022-08-09T11:17:31.921Z,28.11
2022-08-09T11:18:31.853Z,28.05
2022-08-09T11:20:19.980Z,28.32
2022-08-09T11:20:32.921Z,28.61
2022-08-09T11:21:31.852Z,28.92
2022-08-09T11:22:31.954Z,29.07
2022-08-09T11:23:31.833Z,29.33
2022-08-09T11:24:31.867Z,29.58
2022-08-09T11:25:36.290Z,29.26
2022-08-09T11:26:32.849Z,29.21
2022-08-09T11:28:05.379Z,29.27
2022-08-09T11:28:34.563Z,29.51
2022-08-09T11:30:04.820Z,29.48
2022-08-09T11:30:34.375Z,29.18
2022-08-09T11:31:34.205Z,28.82
2022-08-09T11:32:33.153Z,28.05
2022-08-09T11:33:31.773Z,28.18
2022-08-09T11:34:31.795Z,28.20
2022-08-09T11:35:35.015Z,28.27
2022-08-09T11:36:35.822Z,27.90
2022-08-09T11:37:41.372Z,28.01
2022-08-09T11:38:34.020Z,27.84
2022-08-09T11:39:33.613Z,27.91
2022-08-09T11:40:32.778Z,28.27
2022-08-09T11:41:37.509Z,28.52
2022-08-09T11:42:32.945Z,28.77
2022-08-09T11:43:32.337Z,28.89
2022-08-09T11:44:31.702Z,28.94
2022-08-09T11:45:42.431Z,29.15
2022-08-09T11:46:33.675Z,29.23
2022-08-09T11:47:31.748Z,28.60
2022-08-09T11:48:31.906Z,28.33
2022-08-09T11:49:42.706Z,28.11
2022-08-09T11:50:55.326Z,28.01
2022-08-09T11:53:02.447Z,28.36
2022-08-09T11:53:02.870Z,28.64
2022-08-09T11:54:01.452Z,28.85
2022-08-09T11:54:33.687Z,29.08
2022-08-09T11:55:34.985Z,29.41
2022-08-09T11:56:34.441Z,29.52
2022-08-09T11:57:47.865Z,29.71
2022-08-09T11:58:33.962Z,29.18
2022-08-09T11:59:33.604Z,29.00
2022-08-09T12:00:31.800Z,29.21
2022-08-09T12:01:37.519Z,29.20
2022-08-09T12:02:37.054Z,29.25
2022-08-09T12:03:56.726Z,29.27
2022-08-09T12:04:37.405Z,28.69
2022-08-09T12:05:37.614Z,28.38
2022-08-09T12:06:35.122Z,28.64
2022-08-09T12:07:41.644Z,29.12
2022-08-09T12:08:32.563Z,28.95
2022-08-09T12:09:33.691Z,28.65
2022-08-09T12:10:38.649Z,28.88
2022-08-09T12:11:44.510Z,28.62
2022-08-09T12:12:33.557Z,28.45
2022-08-09T12:14:10.013Z,28.80
2022-08-09T12:14:40.603Z,29.08
2022-08-09T12:15:48.592Z,29.35
2022-08-09T12:16:38.453Z,29.63
2022-08-09T12:17:42.263Z,29.86
2022-08-09T12:18:33.656Z,29.99
2022-08-09T12:19:31.498Z,29.94
2022-08-09T12:20:31.530Z,30.13
2022-08-09T12:21:37.183Z,30.32
2022-08-09T12:22:33.698Z,30.40
2022-08-09T12:24:02.439Z,30.34
2022-08-09T12:24:32.454Z,30.21
2022-08-09T12:25:36.037Z,29.62
2022-08-09T12:26:32.469Z,29.07
2022-08-09T12:29:12.147Z,28.43
2022-08-09T12:29:14.324Z,28.46
2022-08-09T12:29:44.770Z,28.32
2022-08-09T12:30:36.879Z,27.83
2022-08-09T12:32:02.344Z,27.84
2022-08-09T12:32:32.750Z,27.91
2022-08-09T12:33:51.344Z,28.23
2022-08-09T12:34:32.427Z,28.64
2022-08-09T12:35:36.043Z,28.60
2022-08-09T12:36:34.034Z,28.76
2022-08-09T12:37:32.477Z,28.95
2022-08-09T12:38:38.022Z,29.18
2022-08-09T12:39:32.572Z,29.54
2022-08-09T12:40:32.388Z,29.81
2022-08-09T12:41:36.241Z,29.78
2022-08-09T12:42:33.687Z,29.58
2022-08-09T12:44:05.470Z,29.26
2022-08-09T12:44:37.442Z,29.29
2022-08-09T12:45:38.488Z,29.07
2022-08-09T12:46:32.349Z,28.55
2022-08-09T12:47:37.171Z,28.32
2022-08-09T12:48:37.197Z,27.98
2022-08-09T12:49:32.511Z,27.81
2022-08-09T12:50:31.340Z,27.61
2022-08-09T12:52:00.218Z,27.77
2022-08-09T12:52:32.332Z,28.02